Time;durP1;ratioP1;P1;durP2;ratioP2;P2;SDS_P1;SDS_P2;PMS_P1;PMS_P2;Temp;Humidity;BMP_temperature;BMP_pressure;BME280_temperature;BME280_humidity;BME280_pressure;Samples;Min_cycle;Max_cycle;Signal;HPM_P1;HPM_P2
2023/07/13 06:01:14;;;;;;;17.50;3.70;;;;;;;;;;5568478;23;20256;-86
2023/07/13 06:03:40;;;;;;;15.52;4.57;;;;;;;;;;4972431;28;20038;-85
2023/07/13 06:06:07;;;;;;;23.35;4.80;;;;;;;;;;4971546;28;20069;-85
2023/07/13 06:08:33;;;;;;;17.88;3.67;;;;;;;;;;4973762;28;20539;-88
2023/07/13 06:11:14;;;;;;;20.90;5.22;;;;;;;;;;4973198;28;20039;-85
2023/07/13 06:13:39;;;;;;;10.02;4.47;;;;;;;;;;4972594;28;20047;-84
2023/07/13 06:16:05;;;;;;;17.30;3.90;;;;;;;;;;4972779;28;20465;-85
2023/07/13 06:18:34;;;;;;;15.40;4.00;;;;;;;;;;4972588;28;20054;-88
2023/07/13 06:21:00;;;;;;;20.17;4.28;;;;;;;;;;4972395;28;20487;-85
2023/07/13 06:23:25;;;;;;;15.13;4.05;;;;;;;;;;4972119;28;20039;-85
2023/07/13 06:25:51;;;;;;;20.55;4.10;;;;;;;;;;4972841;28;20047;-84
2023/07/13 06:28:17;;;;;;;21.13;4.68;;;;;;;;;;4971805;28;20047;-84
2023/07/13 06:30:42;;;;;;;18.38;4.10;;;;;;;;;;4971441;28;20122;-84
2023/07/13 06:33:07;;;;;;;18.00;3.97;;;;;;;;;;4971541;28;20043;-84
2023/07/13 06:35:33;;;;;;;14.95;4.10;;;;;;;;;;4972056;28;20454;-84
2023/07/13 06:37:59;;;;;;;22.75;4.00;;;;;;;;;;4971641;28;20043;-84
2023/07/13 06:40:24;;;;;;;17.23;3.92;;;;;;;;;;4971432;28;20043;-85
2023/07/13 06:42:50;;;;;;;14.73;3.80;;;;;;;;;;4962467;28;20053;-86
2023/07/13 06:45:16;;;;;;;13.88;3.70;;;;;;;;;;4963546;28;20157;-86
2023/07/13 06:47:41;;;;;;;18.30;4.05;;;;;;;;;;4964457;28;20035;-84
2023/07/13 06:50:07;;;;;;;20.15;4.32;;;;;;;;;;4965395;28;20133;-85
2023/07/13 06:52:32;;;;;;;14.23;4.40;;;;;;;;;;4949052;28;20820;-85
2023/07/13 06:54:58;;;;;;;18.00;4.30;;;;;;;;;;4966190;28;20047;-85
2023/07/13 06:57:23;;;;;;;17.27;3.92;;;;;;;;;;4948647;28;20373;-86
2023/07/13 06:59:48;;;;;;;18.67;4.03;;;;;;;;;;4965806;28;20043;-85
2023/07/13 07:02:14;;;;;;;16.27;3.47;;;;;;;;;;4965312;28;20054;-86
2023/07/13 07:04:39;;;;;;;15.40;3.63;;;;;;;;;;4965431;28;20057;-85
2023/07/13 07:07:05;;;;;;;16.27;4.07;;;;;;;;;;4965694;28;20054;-85
2023/07/13 07:09:31;;;;;;;14.73;3.35;;;;;;;;;;4967415;28;20051;-86
2023/07/13 07:11:57;;;;;;;12.63;3.28;;;;;;;;;;4961846;28;20105;-86
2023/07/13 07:14:22;;;;;;;12.27;3.15;;;;;;;;;;4965897;28;20050;-86
2023/07/13 07:16:48;;;;;;;18.60;3.83;;;;;;;;;;4966311;28;20113;-86
2023/07/13 07:19:13;;;;;;;15.85;3.85;;;;;;;;;;4965072;28;20043;-86
2023/07/13 07:21:39;;;;;;;19.35;3.83;;;;;;;;;;4966351;28;20074;-86
2023/07/13 07:24:04;;;;;;;17.42;3.67;;;;;;;;;;4966359;28;21005;-85
2023/07/13 07:26:30;;;;;;;18.42;4.13;;;;;;;;;;4966962;28;20116;-86
2023/07/13 07:28:56;;;;;;;22.67;4.28;;;;;;;;;;4968655;28;20041;-86
2023/07/13 07:31:21;;;;;;;15.80;3.78;;;;;;;;;;4969071;28;20089;-87
2023/07/13 07:33:47;;;;;;;17.38;3.90;;;;;;;;;;4966875;28;20495;-87
2023/07/13 07:36:12;;;;;;;13.70;3.90;;;;;;;;;;4966125;28;20059;-87
2023/07/13 07:38:38;;;;;;;14.45;3.50;;;;;;;;;;4966053;28;20039;-86
2023/07/13 07:41:04;;;;;;;17.08;3.60;;;;;;;;;;4966489;28;20055;-85
2023/07/13 07:43:31;;;;;;;14.70;3.42;;;;;;;;;;4964982;28;20050;-87
2023/07/13 07:45:56;;;;;;;15.93;3.95;;;;;;;;;;4952734;28;20117;-85
2023/07/13 07:48:22;;;;;;;14.32;2.72;;;;;;;;;;4951991;28;20130;-85
2023/07/13 07:50:48;;;;;;;17.15;2.80;;;;;;;;;;4969822;28;20050;-84
2023/07/13 07:53:14;;;;;;;10.38;2.53;;;;;;;;;;4968863;28;20102;-84
2023/07/13 07:55:39;;;;;;;12.20;2.58;;;;;;;;;;4967694;28;20122;-83
2023/07/13 07:58:06;;;;;;;11.73;2.75;;;;;;;;;;4949539;28;20570;-84
2023/07/13 08:00:32;;;;;;;12.85;2.67;;;;;;;;;;4967023;28;20047;-84
2023/07/13 08:02:58;;;;;;;10.55;2.65;;;;;;;;;;4967750;28;20141;-84
2023/07/13 08:05:24;;;;;;;11.50;3.05;;;;;;;;;;4954020;28;20619;-83
2023/07/13 08:07:50;;;;;;;11.45;2.50;;;;;;;;;;4970304;28;20050;-83
2023/07/13 08:10:15;;;;;;;15.27;2.33;;;;;;;;;;4970339;28;20039;-83
2023/07/13 08:12:41;;;;;;;8.05;2.42;;;;;;;;;;4992556;28;20034;-84
2023/07/13 08:15:10;;;;;;;8.98;2.40;;;;;;;;;;4976352;28;20237;-84
2023/07/13 08:17:39;;;;;;;14.43;2.60;;;;;;;;;;4972193;28;20518;-86
2023/07/13 08:20:04;;;;;;;;;;;;;;;;;;4977655;28;20086;-84
2023/07/13 08:22:30;;;;;;;12.60;2.75;;;;;;;;;;4970895;28;20389;-85
2023/07/13 08:24:55;;;;;;;17.45;2.90;;;;;;;;;;4971466;28;20054;-85
2023/07/13 08:27:27;;;;;;;8.50;2.67;;;;;;;;;;4953630;28;20133;-85
2023/07/13 08:29:53;;;;;;;13.82;2.67;;;;;;;;;;4970760;28;20058;-84
2023/07/13 08:32:20;;;;;;;9.05;2.30;;;;;;;;;;4985560;28;20053;-86
2023/07/13 08:34:46;;;;;;;11.70;2.60;;;;;;;;;;4979259;28;20067;-85
2023/07/13 08:37:12;;;;;;;9.52;2.75;;;;;;;;;;4954682;28;20058;-85
2023/07/13 08:39:38;;;;;;;8.68;2.65;;;;;;;;;;4971585;28;20105;-85
2023/07/13 08:42:14;;;;;;;8.70;2.75;;;;;;;;;;4971392;28;20046;-84
2023/07/13 08:45:03;;;;;;;8.90;2.20;;;;;;;;;;4956046;28;20038;-87
2023/07/13 08:47:29;;;;;;;9.70;2.17;;;;;;;;;;4974946;28;20039;-88
2023/07/13 08:49:56;;;;;;;11.43;2.58;;;;;;;;;;4961629;28;20070;-87
2023/07/13 08:52:34;;;;;;;11.90;2.58;;;;;;;;;;4982272;28;20047;-87
2023/07/13 08:55:13;;;;;;;8.27;2.60;;;;;;;;;;4977557;28;20043;-85
2023/07/13 08:57:41;;;;;;;10.32;2.50;;;;;;;;;;4979699;28;20415;-85
2023/07/13 09:00:11;;;;;;;9.57;2.97;;;;;;;;;;4982315;28;20106;-86
2023/07/13 09:02:56;;;;;;;12.07;2.80;;;;;;;;;;4979129;28;20053;-85
2023/07/13 09:05:31;;;;;;;10.32;2.30;;;;;;;;;;4960283;28;20126;-85
2023/07/13 09:08:23;;;;;;;11.40;2.42;;;;;;;;;;4956902;29;20481;-84
2023/07/13 09:10:58;;;;;;;9.00;2.35;;;;;;;;;;4957143;28;20043;-84
2023/07/13 09:13:51;;;;;;;8.55;2.47;;;;;;;;;;4976491;28;20046;-84
2023/07/13 09:16:17;;;;;;;8.65;2.40;;;;;;;;;;4958439;28;20051;-86
2023/07/13 09:18:49;;;;;;;6.75;2.45;;;;;;;;;;4976807;28;20039;-84
2023/07/13 09:21:18;;;;;;;6.85;2.20;;;;;;;;;;4972928;28;20460;-84
2023/07/13 09:23:44;;;;;;;9.43;2.20;;;;;;;;;;4975687;28;20042;-86
2023/07/13 09:26:22;;;;;;;9.73;2.60;;;;;;;;;;4975015;28;20045;-85
2023/07/13 09:28:52;;;;;;;9.45;2.45;;;;;;;;;;4975937;28;20034;-84
2023/07/13 09:31:24;;;;;;;11.55;2.42;;;;;;;;;;4975198;28;20074;-86
2023/07/13 09:33:50;;;;;;;13.45;2.70;;;;;;;;;;4985769;28;20130;-86
2023/07/13 09:36:25;;;;;;;7.97;2.42;;;;;;;;;;4996732;28;20142;-84
2023/07/13 09:39:14;;;;;;;7.43;2.42;;;;;;;;;;4998927;28;20037;-86
2023/07/13 09:42:03;;;;;;;9.23;2.30;;;;;;;;;;4980795;28;20064;-85
2023/07/13 09:44:43;;;;;;;7.20;2.05;;;;;;;;;;4981169;28;20054;-85
2023/07/13 09:47:17;;;;;;;8.77;2.35;;;;;;;;;;4997871;28;20111;-83
2023/07/13 09:49:44;;;;;;;7.13;2.17;;;;;;;;;;4984472;28;20403;-83
2023/07/13 09:52:15;;;;;;;10.30;2.58;;;;;;;;;;4987840;28;20041;-86
2023/07/13 09:54:45;;;;;;;8.82;1.98;;;;;;;;;;4998478;28;20053;-85
2023/07/13 09:57:18;;;;;;;10.35;2.40;;;;;;;;;;4996505;28;20030;-84
2023/07/13 09:59:48;;;;;;;9.38;2.00;;;;;;;;;;4997562;28;20046;-84
2023/07/13 10:02:33;;;;;;;6.95;2.30;;;;;;;;;;4996047;28;20055;-84
2023/07/13 10:05:00;;;;;;;7.25;2.00;;;;;;;;;;4996926;28;20089;-85
2023/07/13 10:07:26;;;;;;;8.13;2.60;;;;;;;;;;4995937;28;20090;-86
2023/07/13 10:09:54;;;;;;;7.97;2.00;;;;;;;;;;4956295;28;20039;-85
2023/07/13 10:12:20;;;;;;;8.20;2.05;;;;;;;;;;4983100;28;20131;-85
2023/07/13 10:14:46;;;;;;;7.05;2.17;;;;;;;;;;4980491;28;20094;-86
2023/07/13 10:17:15;;;;;;;6.63;2.00;;;;;;;;;;4991836;28;20042;-86
2023/07/13 10:19:45;;;;;;;7.32;1.88;;;;;;;;;;4997138;28;20058;-85
2023/07/13 10:22:29;;;;;;;8.68;1.88;;;;;;;;;;4996742;28;20054;-87
2023/07/13 10:24:55;;;;;;;8.23;1.90;;;;;;;;;;4996888;28;20041;-84
2023/07/13 10:27:32;;;;;;;7.10;2.10;;;;;;;;;;4995301;28;20051;-86
2023/07/13 10:29:58;;;;;;;11.70;1.80;;;;;;;;;;4971384;28;20046;-85
2023/07/13 10:32:24;;;;;;;8.80;2.30;;;;;;;;;;4957453;28;20062;-87
2023/07/13 10:34:52;;;;;;;6.88;2.00;;;;;;;;;;4975767;28;20054;-87
2023/07/13 10:37:31;;;;;;;7.47;2.00;;;;;;;;;;4975411;28;20050;-86
2023/07/13 10:39:57;;;;;;;5.85;1.98;;;;;;;;;;4974792;28;20117;-86
2023/07/13 10:42:45;;;;;;;5.50;1.90;;;;;;;;;;4975020;28;20057;-85
2023/07/13 10:45:20;;;;;;;6.38;2.20;;;;;;;;;;4974271;28;20074;-85
2023/07/13 10:47:47;;;;;;;5.07;1.63;;;;;;;;;;4972967;28;20039;-84
2023/07/13 10:50:21;;;;;;;4.78;1.52;;;;;;;;;;4970517;28;20098;-85
2023/07/13 10:53:01;;;;;;;5.93;1.85;;;;;;;;;;4970140;28;20046;-86
2023/07/13 10:55:55;;;;;;;6.63;1.67;;;;;;;;;;4971594;28;20050;-86
2023/07/13 10:58:23;;;;;;;6.35;1.58;;;;;;;;;;4973129;28;20093;-87
2023/07/13 11:00:58;;;;;;;3.58;1.52;;;;;;;;;;4973159;28;20054;-84
2023/07/13 11:03:28;;;;;;;5.78;1.52;;;;;;;;;;4972666;28;20409;-84
2023/07/13 11:06:13;;;;;;;4.90;1.40;;;;;;;;;;4971703;28;20039;-85
2023/07/13 11:08:53;;;;;;;5.57;1.50;;;;;;;;;;4970245;28;20046;-85
2023/07/13 11:11:24;;;;;;;7.93;1.65;;;;;;;;;;4971399;28;20080;-84
2023/07/13 11:13:49;;;;;;;4.82;1.50;;;;;;;;;;4971090;28;20061;-83
2023/07/13 11:16:18;;;;;;;5.30;1.80;;;;;;;;;;4961401;28;20034;-82
2023/07/13 11:18:50;;;;;;;6.00;1.48;;;;;;;;;;4971610;28;20491;-84
2023/07/13 11:21:22;;;;;;;3.40;1.30;;;;;;;;;;4971688;28;20054;-85
2023/07/13 11:24:15;;;;;;;5.97;1.63;;;;;;;;;;4971423;28;20125;-85
2023/07/13 11:26:49;;;;;;;5.47;1.42;;;;;;;;;;4952175;28;20043;-86
2023/07/13 11:29:15;;;;;;;3.17;1.40;;;;;;;;;;4968641;28;20570;-85
2023/07/13 11:31:43;;;;;;;4.10;1.20;;;;;;;;;;4954236;28;20074;-86
2023/07/13 11:34:14;;;;;;;2.72;1.30;;;;;;;;;;4968462;28;20039;-86
2023/07/13 11:36:44;;;;;;;4.70;1.30;;;;;;;;;;4969020;28;20085;-87
2023/07/13 11:39:35;;;;;;;4.25;1.50;;;;;;;;;;4970722;28;20039;-86
2023/07/13 11:42:13;;;;;;;4.95;1.52;;;;;;;;;;4969572;28;20510;-87
2023/07/13 11:44:44;;;;;;;2.63;1.30;;;;;;;;;;4951315;28;20133;-86
2023/07/13 11:47:14;;;;;;;4.63;1.20;;;;;;;;;;4970765;28;20049;-84
2023/07/13 11:49:48;;;;;;;3.78;1.30;;;;;;;;;;4968924;28;20533;-87
2023/07/13 11:52:17;;;;;;;5.75;1.50;;;;;;;;;;4970536;28;20047;-85
2023/07/13 11:54:55;;;;;;;4.65;1.40;;;;;;;;;;4971375;28;20046;-85
2023/07/13 11:57:25;;;;;;;3.70;1.35;;;;;;;;;;4968913;28;20038;-89
2023/07/13 11:59:53;;;;;;;4.57;1.35;;;;;;;;;;4972510;28;20042;-88
2023/07/13 12:02:32;;;;;;;4.72;1.83;;;;;;;;;;4972087;28;20043;-88
2023/07/13 12:05:00;;;;;;;5.47;1.33;;;;;;;;;;4955945;28;20133;-89
2023/07/13 12:07:29;;;;;;;3.97;1.53;;;;;;;;;;4972625;28;20046;-90
2023/07/13 12:10:01;;;;;;;4.80;1.35;;;;;;;;;;4973215;28;20043;-89
2023/07/13 12:12:30;;;;;;;3.00;1.30;;;;;;;;;;4971782;28;20058;-89
2023/07/13 12:14:56;;;;;;;6.03;1.70;;;;;;;;;;4973027;28;20042;-90
2023/07/13 12:17:23;;;;;;;3.13;1.20;;;;;;;;;;4955878;28;20043;-91
2023/07/13 12:19:51;;;;;;;4.20;1.67;;;;;;;;;;4956874;28;20046;-88
2023/07/13 12:22:19;;;;;;;3.42;1.30;;;;;;;;;;4970353;28;20043;-86
2023/07/13 12:24:45;;;;;;;3.72;1.30;;;;;;;;;;4954313;28;20102;-86
2023/07/13 12:27:23;;;;;;;2.55;1.23;;;;;;;;;;4954232;28;20113;-87
2023/07/13 12:30:05;;;;;;;2.25;1.00;;;;;;;;;;4974714;28;20070;-87
2023/07/13 12:32:31;;;;;;;5.13;1.30;;;;;;;;;;4971306;28;20039;-86
2023/07/13 12:35:18;;;;;;;4.88;1.40;;;;;;;;;;4974515;28;20042;-87
2023/07/13 12:37:46;;;;;;;3.03;1.33;;;;;;;;;;4973427;28;20039;-86
2023/07/13 12:40:36;;;;;;;2.78;1.30;;;;;;;;;;4971646;28;20046;-85
2023/07/13 12:43:06;;;;;;;9.80;1.48;;;;;;;;;;4961131;28;20186;-86
2023/07/13 12:45:33;;;;;;;3.80;1.40;;;;;;;;;;4971918;28;20042;-87
2023/07/13 12:48:05;;;;;;;5.30;1.50;;;;;;;;;;4957471;28;20519;-86
2023/07/13 12:50:37;;;;;;;3.72;1.30;;;;;;;;;;4971074;28;20514;-84
2023/07/13 12:53:07;;;;;;;2.50;1.35;;;;;;;;;;4974216;28;20039;-87
2023/07/13 12:55:42;;;;;;;3.33;1.48;;;;;;;;;;4970994;28;20043;-85
2023/07/13 12:58:17;;;;;;;4.38;1.33;;;;;;;;;;4972939;28;20047;-86
2023/07/13 13:00:49;;;;;;;4.60;1.30;;;;;;;;;;4956936;28;20533;-86
2023/07/13 13:03:20;;;;;;;6.65;1.42;;;;;;;;;;4973243;28;20069;-87
2023/07/13 13:05:46;;;;;;;5.03;1.35;;;;;;;;;;4974146;28;20050;-86
2023/07/13 13:08:11;;;;;;;4.35;1.70;;;;;;;;;;4974020;28;20053;-87
2023/07/13 13:10:37;;;;;;;3.80;1.60;;;;;;;;;;4974156;28;20069;-87
2023/07/13 13:13:03;;;;;;;4.53;1.80;;;;;;;;;;4974445;28;20125;-86
2023/07/13 13:15:29;;;;;;;4.25;1.77;;;;;;;;;;4973909;28;20056;-86
2023/07/13 13:17:55;;;;;;;6.35;1.80;;;;;;;;;;4974754;28;20042;-85
2023/07/13 13:20:22;;;;;;;5.18;1.73;;;;;;;;;;4974013;28;20112;-85
2023/07/13 13:22:47;;;;;;;4.78;2.08;;;;;;;;;;4964299;28;20047;-86
2023/07/13 13:25:14;;;;;;;4.05;1.70;;;;;;;;;;4954612;28;20046;-85
2023/07/13 13:27:44;;;;;;;6.75;2.13;;;;;;;;;;4954238;28;20047;-86
2023/07/13 13:30:15;;;;;;;6.50;1.95;;;;;;;;;;4954580;28;20069;-87
2023/07/13 13:32:42;;;;;;;6.65;2.00;;;;;;;;;;4970329;28;20153;-87
2023/07/13 13:35:17;;;;;;;6.70;1.83;;;;;;;;;;4973667;28;20773;-87
2023/07/13 13:37:43;;;;;;;5.95;1.95;;;;;;;;;;4974151;28;20039;-84
2023/07/13 13:40:22;;;;;;;5.68;1.98;;;;;;;;;;4973528;28;20141;-88
2023/07/13 13:42:47;;;;;;;6.05;1.90;;;;;;;;;;4956757;28;20519;-87
2023/07/13 13:45:13;;;;;;;4.28;1.60;;;;;;;;;;4974733;28;20066;-88
2023/07/13 13:47:40;;;;;;;6.13;1.80;;;;;;;;;;4973907;28;20130;-86
2023/07/13 13:50:17;;;;;;;7.85;2.28;;;;;;;;;;4955923;28;20480;-87
2023/07/13 13:52:44;;;;;;;8.23;2.28;;;;;;;;;;4974615;28;20063;-88
2023/07/13 13:55:27;;;;;;;4.93;2.10;;;;;;;;;;4973512;28;20109;-88
2023/07/13 13:57:53;;;;;;;3.95;1.85;;;;;;;;;;4974847;28;20526;-87
2023/07/13 14:00:20;;;;;;;4.70;1.80;;;;;;;;;;4973293;28;20047;-86
2023/07/13 14:02:50;;;;;;;5.57;1.73;;;;;;;;;;4974614;28;20538;-87
2023/07/13 14:05:22;;;;;;;4.45;1.88;;;;;;;;;;4974363;28;20519;-87
2023/07/13 14:07:47;;;;;;;3.53;1.80;;;;;;;;;;4974850;28;20054;-87
2023/07/13 14:10:15;;;;;;;5.68;1.88;;;;;;;;;;4973127;28;20042;-87
2023/07/13 14:12:47;;;;;;;4.88;1.85;;;;;;;;;;4973690;28;20043;-85
2023/07/13 14:15:26;;;;;;;4.32;1.90;;;;;;;;;;4973636;28;20503;-86
2023/07/13 14:17:53;;;;;;;5.25;1.70;;;;;;;;;;4973675;28;20130;-86
2023/07/13 14:20:21;;;;;;;6.22;1.80;;;;;;;;;;4972618;28;20053;-85
2023/07/13 14:22:48;;;;;;;4.18;1.67;;;;;;;;;;4973062;28;20042;-86
2023/07/13 14:25:15;;;;;;;3.63;1.80;;;;;;;;;;4972218;28;20075;-86
2023/07/13 14:27:42;;;;;;;4.93;1.85;;;;;;;;;;4972725;28;20067;-88
2023/07/13 14:30:15;;;;;;;4.18;2.10;;;;;;;;;;4972594;28;20491;-88
2023/07/13 14:32:41;;;;;;;4.35;1.60;;;;;;;;;;4968616;28;20078;-85
2023/07/13 14:35:12;;;;;;;3.70;1.65;;;;;;;;;;4972818;28;20035;-85
2023/07/13 14:37:39;;;;;;;3.10;1.60;;;;;;;;;;4973199;28;20572;-86
2023/07/13 14:40:14;;;;;;;5.53;1.90;;;;;;;;;;4973259;28;20114;-85
2023/07/13 14:42:40;;;;;;;3.05;1.67;;;;;;;;;;4955003;28;20041;-86
2023/07/13 14:45:12;;;;;;;5.47;1.95;;;;;;;;;;4972121;28;20047;-84
2023/07/13 14:47:38;;;;;;;4.70;1.60;;;;;;;;;;4973123;28;20046;-83
2023/07/13 14:50:05;;;;;;;3.92;1.80;;;;;;;;;;4972358;28;20062;-84
2023/07/13 14:52:30;;;;;;;4.40;1.63;;;;;;;;;;4972567;28;20047;-84
2023/07/13 14:54:56;;;;;;;2.65;1.55;;;;;;;;;;4972554;28;20043;-84
2023/07/13 14:57:21;;;;;;;3.03;1.50;;;;;;;;;;4972256;28;20507;-85
2023/07/13 14:59:47;;;;;;;3.22;1.88;;;;;;;;;;4972852;28;20059;-85
2023/07/13 15:02:25;;;;;;;4.78;1.80;;;;;;;;;;4971738;28;20069;-88
2023/07/13 15:04:50;;;;;;;4.03;1.75;;;;;;;;;;4970731;28;20042;-85
2023/07/13 15:07:17;;;;;;;4.63;1.58;;;;;;;;;;4971883;28;20050;-84
2023/07/13 15:09:43;;;;;;;4.40;1.40;;;;;;;;;;4972280;28;20096;-83
2023/07/13 15:12:09;;;;;;;3.70;1.60;;;;;;;;;;4971763;28;20122;-85
2023/07/13 15:14:34;;;;;;;3.85;1.83;;;;;;;;;;4972376;28;20514;-86
2023/07/13 15:17:00;;;;;;;5.88;2.00;;;;;;;;;;4973045;28;20039;-85
2023/07/13 15:19:26;;;;;;;4.20;1.70;;;;;;;;;;4972357;28;20504;-86
2023/07/13 15:21:54;;;;;;;3.72;1.95;;;;;;;;;;4972281;28;20065;-85
2023/07/13 15:24:20;;;;;;;2.33;1.60;;;;;;;;;;4968947;28;20046;-85
2023/07/13 15:26:48;;;;;;;3.80;1.70;;;;;;;;;;4972106;28;20122;-85
2023/07/13 15:29:14;;;;;;;3.75;1.55;;;;;;;;;;4968511;28;20054;-86
2023/07/13 15:31:41;;;;;;;5.55;1.65;;;;;;;;;;4972498;28;20053;-84
2023/07/13 15:34:16;;;;;;;3.17;1.58;;;;;;;;;;4971199;28;20086;-86
2023/07/13 15:36:48;;;;;;;4.32;1.75;;;;;;;;;;4970655;28;20448;-85
2023/07/13 15:39:16;;;;;;;6.55;1.83;;;;;;;;;;4953838;28;20043;-85
2023/07/13 15:41:42;;;;;;;3.13;1.60;;;;;;;;;;4971963;28;20042;-87
2023/07/13 15:44:30;;;;;;;4.13;1.70;;;;;;;;;;4971289;28;20035;-85
2023/07/13 15:46:56;;;;;;;;;;;;;;;;;;4970090;28;20069;-86
2023/07/13 15:49:21;;;;;;;4.28;1.90;;;;;;;;;;4953894;28;19946;-87
2023/07/13 15:51:48;;;;;;;4.82;1.58;;;;;;;;;;4954181;28;20070;-85
2023/07/13 15:54:16;;;;;;;6.10;1.80;;;;;;;;;;4970609;28;20478;-85
2023/07/13 15:56:41;;;;;;;4.63;1.60;;;;;;;;;;4971494;28;20055;-87
2023/07/13 15:59:12;;;;;;;4.10;1.70;;;;;;;;;;4970605;28;20043;-86
2023/07/13 16:01:38;;;;;;;5.35;1.90;;;;;;;;;;4970648;28;20047;-85
2023/07/13 16:04:04;;;;;;;3.45;1.60;;;;;;;;;;4975295;28;20562;-86
2023/07/13 16:06:33;;;;;;;4.30;1.58;;;;;;;;;;4957339;28;20054;-86
2023/07/13 16:08:59;;;;;;;3.75;1.52;;;;;;;;;;4974982;28;20046;-85
2023/07/13 16:11:33;;;;;;;3.78;1.60;;;;;;;;;;4974601;28;20054;-85
2023/07/13 16:13:59;;;;;;;4.50;1.70;;;;;;;;;;4955500;28;20431;-85
2023/07/13 16:16:30;;;;;;;4.05;1.80;;;;;;;;;;4975126;28;20123;-85
2023/07/13 16:18:57;;;;;;;2.65;1.40;;;;;;;;;;4972710;28;20038;-83
2023/07/13 16:21:35;;;;;;;5.68;1.70;;;;;;;;;;4974933;28;20046;-85
2023/07/13 16:24:01;;;;;;;3.88;1.70;;;;;;;;;;4972322;28;20101;-85
2023/07/13 16:26:39;;;;;;;2.83;1.55;;;;;;;;;;4974349;28;20042;-85
2023/07/13 16:29:26;;;;;;;3.45;1.92;;;;;;;;;;4971517;28;20048;-84
2023/07/13 16:32:07;;;;;;;5.75;1.80;;;;;;;;;;4974958;28;20054;-85
2023/07/13 16:34:34;;;;;;;5.97;1.92;;;;;;;;;;4974646;28;20042;-85
2023/07/13 16:37:02;;;;;;;4.40;1.53;;;;;;;;;;4975331;28;20039;-84
2023/07/13 16:39:29;;;;;;;4.28;1.90;;;;;;;;;;4974305;28;20104;-85
2023/07/13 16:41:57;;;;;;;6.28;2.17;;;;;;;;;;4971812;28;20100;-85
2023/07/13 16:44:25;;;;;;;4.57;1.77;;;;;;;;;;4974274;28;20043;-85
2023/07/13 16:46:55;;;;;;;6.07;1.70;;;;;;;;;;4975088;28;20130;-83
2023/07/13 16:49:28;;;;;;;6.05;2.00;;;;;;;;;;4975045;28;20062;-84
2023/07/13 16:51:54;;;;;;;4.60;2.00;;;;;;;;;;4974783;28;20082;-84
2023/07/13 16:54:21;;;;;;;3.50;1.58;;;;;;;;;;4974407;28;20090;-84
2023/07/13 16:56:50;;;;;;;6.82;2.00;;;;;;;;;;4975658;28;20046;-83
2023/07/13 16:59:17;;;;;;;6.90;2.20;;;;;;;;;;4972765;28;20140;-83
2023/07/13 17:01:44;;;;;;;4.57;1.52;;;;;;;;;;4974440;28;20125;-83
2023/07/13 17:04:11;;;;;;;6.80;1.63;;;;;;;;;;4975356;28;20070;-85
2023/07/13 17:06:38;;;;;;;5.30;1.77;;;;;;;;;;4958107;28;20043;-84
2023/07/13 17:09:06;;;;;;;6.72;1.73;;;;;;;;;;4970358;28;20054;-85
2023/07/13 17:11:33;;;;;;;4.32;1.50;;;;;;;;;;4949165;28;20105;-84
2023/07/13 17:13:58;;;;;;;4.38;1.75;;;;;;;;;;4974075;28;20451;-84
2023/07/13 17:16:25;;;;;;;4.18;1.63;;;;;;;;;;4973968;28;20050;-84
2023/07/13 17:18:51;;;;;;;4.65;1.52;;;;;;;;;;4974775;28;20089;-84
2023/07/13 17:21:17;;;;;;;5.75;1.73;;;;;;;;;;4973076;28;20066;-85
2023/07/13 17:23:43;;;;;;;3.72;1.77;;;;;;;;;;4974146;28;20050;-85
2023/07/13 17:26:09;;;;;;;6.70;1.88;;;;;;;;;;4974028;28;20491;-84
2023/07/13 17:28:35;;;;;;;5.07;1.58;;;;;;;;;;4973862;28;20043;-83
2023/07/13 17:31:05;;;;;;;6.82;1.60;;;;;;;;;;4956857;28;20086;-82
2023/07/13 17:33:39;;;;;;;7.35;1.70;;;;;;;;;;4973725;28;20081;-83
2023/07/13 17:36:11;;;;;;;4.68;1.70;;;;;;;;;;4973043;28;20061;-85
2023/07/13 17:38:43;;;;;;;7.57;1.85;;;;;;;;;;4973486;28;20043;-83
2023/07/13 17:41:11;;;;;;;11.00;1.98;;;;;;;;;;4973263;28;20038;-83
2023/07/13 17:43:37;;;;;;;8.40;1.90;;;;;;;;;;4972259;28;20466;-83
2023/07/13 17:46:15;;;;;;;8.05;1.75;;;;;;;;;;4973261;28;20050;-83
2023/07/13 17:48:43;;;;;;;5.95;1.70;;;;;;;;;;4973429;28;20047;-83
2023/07/13 17:51:15;;;;;;;3.65;1.50;;;;;;;;;;4972765;28;20035;-84
2023/07/13 17:53:42;;;;;;;5.70;1.75;;;;;;;;;;4963825;28;20508;-82
2023/07/13 17:56:10;;;;;;;3.22;1.55;;;;;;;;;;4966377;28;20051;-84
2023/07/13 17:58:37;;;;;;;3.97;1.52;;;;;;;;;;4949701;28;20145;-85
2023/07/13 18:01:03;;;;;;;4.18;1.23;;;;;;;;;;4959049;28;20117;-84
2023/07/13 18:03:34;;;;;;;6.55;1.60;;;;;;;;;;4965859;28;20070;-85
2023/07/13 18:06:03;;;;;;;5.78;1.67;;;;;;;;;;4964367;28;20050;-85
2023/07/13 18:08:33;;;;;;;5.40;1.45;;;;;;;;;;4966241;28;20053;-85
2023/07/13 18:11:00;;;;;;;6.05;1.70;;;;;;;;;;4966957;28;20134;-84
2023/07/13 18:13:28;;;;;;;4.38;1.70;;;;;;;;;;4965953;28;20046;-84
2023/07/13 18:15:53;;;;;;;5.20;1.75;;;;;;;;;;4966751;28;20530;-84
2023/07/13 18:18:21;;;;;;;5.97;1.63;;;;;;;;;;4966642;28;20043;-84
2023/07/13 18:20:47;;;;;;;5.60;1.50;;;;;;;;;;4967053;28;20066;-83
2023/07/13 18:23:18;;;;;;;5.43;1.65;;;;;;;;;;4965159;28;20074;-85
2023/07/13 18:25:45;;;;;;;5.40;2.30;;;;;;;;;;4944701;28;20508;-84
2023/07/13 18:28:15;;;;;;;7.80;2.42;;;;;;;;;;4964622;28;20058;-84
2023/07/13 18:30:41;;;;;;;6.72;1.63;;;;;;;;;;4966228;28;20077;-85
2023/07/13 18:33:33;;;;;;;5.22;1.88;;;;;;;;;;4946293;28;20058;-84
2023/07/13 18:36:04;;;;;;;7.30;1.90;;;;;;;;;;4947269;29;20043;-85
2023/07/13 18:38:31;;;;;;;5.65;1.50;;;;;;;;;;4947083;29;20047;-84
2023/07/13 18:40:56;;;;;;;8.45;1.70;;;;;;;;;;4947547;29;20043;-85
2023/07/13 18:43:23;;;;;;;8.10;2.42;;;;;;;;;;4947914;29;20106;-83
2023/07/13 18:45:54;;;;;;;5.43;1.92;;;;;;;;;;4947580;29;20055;-85
2023/07/13 18:48:22;;;;;;;8.30;2.00;;;;;;;;;;4951008;28;20150;-84
2023/07/13 18:50:49;;;;;;;6.40;2.10;;;;;;;;;;4964095;28;20051;-85
2023/07/13 18:53:16;;;;;;;5.80;1.88;;;;;;;;;;4964699;28;20059;-83
2023/07/13 18:55:43;;;;;;;6.75;1.60;;;;;;;;;;4965431;28;20587;-84
2023/07/13 18:58:11;;;;;;;5.85;1.80;;;;;;;;;;4960742;28;20034;-84
2023/07/13 19:00:40;;;;;;;5.93;2.10;;;;;;;;;;4965188;28;20055;-83
2023/07/13 19:03:29;;;;;;;6.97;2.13;;;;;;;;;;4963130;28;20043;-82
2023/07/13 19:05:55;;;;;;;8.60;1.98;;;;;;;;;;4962706;28;20050;-84
2023/07/13 19:08:22;;;;;;;5.93;2.17;;;;;;;;;;4954670;28;20086;-84
2023/07/13 19:10:51;;;;;;;8.05;2.20;;;;;;;;;;4963727;28;20865;-83
2023/07/13 19:13:22;;;;;;;6.60;2.40;;;;;;;;;;4947235;28;20171;-84
2023/07/13 19:15:48;;;;;;;8.05;2.53;;;;;;;;;;4965083;28;20092;-83
2023/07/13 19:18:18;;;;;;;8.30;2.72;;;;;;;;;;4965285;28;20426;-84
2023/07/13 19:20:50;;;;;;;5.88;1.92;;;;;;;;;;4965007;28;20046;-84
2023/07/13 19:23:31;;;;;;;6.28;2.05;;;;;;;;;;4965181;28;20698;-85
2023/07/13 19:26:03;;;;;;;5.07;1.83;;;;;;;;;;4965083;28;20050;-83
2023/07/13 19:28:48;;;;;;;5.78;2.00;;;;;;;;;;4964678;28;20049;-83
2023/07/13 19:31:27;;;;;;;10.68;5.72;;;;;;;;;;4951799;28;20133;-81
2023/07/13 19:33:53;;;;;;;15.68;6.20;;;;;;;;;;4954166;28;20062;-82
2023/07/13 19:36:21;;;;;;;8.18;5.15;;;;;;;;;;4964309;28;20045;-82
2023/07/13 19:38:49;;;;;;;7.38;3.67;;;;;;;;;;4954100;28;20039;-84
2023/07/13 19:41:18;;;;;;;7.57;2.33;;;;;;;;;;4949717;28;20105;-84
2023/07/13 19:43:44;;;;;;;11.07;4.15;;;;;;;;;;4952360;28;20533;-84
2023/07/13 19:46:17;;;;;;;17.48;9.82;;;;;;;;;;4952088;28;20207;-83
2023/07/13 19:48:43;;;;;;;12.88;7.10;;;;;;;;;;4965544;28;20039;-84
2023/07/13 19:51:16;;;;;;;34.00;21.73;;;;;;;;;;4947414;28;20142;-85
2023/07/13 19:53:41;;;;;;;32.80;20.13;;;;;;;;;;4965285;28;20594;-84
2023/07/13 19:56:08;;;;;;;23.13;14.45;;;;;;;;;;4965025;28;20090;-84
2023/07/13 19:58:34;;;;;;;25.35;15.05;;;;;;;;;;4965141;28;20121;-84
2023/07/13 20:00:59;;;;;;;9.15;4.78;;;;;;;;;;4958057;28;20539;-84
2023/07/13 20:03:25;;;;;;;34.50;19.92;;;;;;;;;;4965277;28;20049;-84
2023/07/13 20:05:51;;;;;;;40.25;24.88;;;;;;;;;;4964887;28;20042;-82
2023/07/13 20:08:20;;;;;;;9.95;3.65;;;;;;;;;;4965124;28;20106;-81
2023/07/13 20:10:49;;;;;;;7.18;3.65;;;;;;;;;;4964953;28;20240;-82
2023/07/13 20:13:20;;;;;;;9.13;3.10;;;;;;;;;;4954326;28;20082;-84
2023/07/13 20:15:46;;;;;;;7.18;2.28;;;;;;;;;;4964626;28;20043;-83
2023/07/13 20:18:14;;;;;;;7.00;2.63;;;;;;;;;;4955030;28;20051;-86
2023/07/13 20:20:45;;;;;;;6.35;2.28;;;;;;;;;;4965024;28;20069;-83
2023/07/13 20:23:19;;;;;;;8.00;2.15;;;;;;;;;;4963354;28;20051;-83
2023/07/13 20:25:49;;;;;;;5.57;2.35;;;;;;;;;;4963402;28;20054;-84
2023/07/13 20:28:15;;;;;;;6.55;2.28;;;;;;;;;;4963027;28;20093;-83
2023/07/13 20:30:45;;;;;;;6.57;2.33;;;;;;;;;;4963471;28;20601;-83
2023/07/13 20:33:21;;;;;;;10.40;2.50;;;;;;;;;;4962675;28;20050;-83
2023/07/13 20:35:48;;;;;;;7.80;2.42;;;;;;;;;;4963178;28;20479;-84
2023/07/13 20:38:16;;;;;;;9.40;2.45;;;;;;;;;;4963846;28;20137;-84
2023/07/13 20:40:43;;;;;;;9.50;2.40;;;;;;;;;;4964136;28;20196;-84
2023/07/13 20:43:08;;;;;;;5.30;2.40;;;;;;;;;;4962990;28;20043;-84
2023/07/13 20:45:35;;;;;;;14.07;3.05;;;;;;;;;;4963908;28;20039;-84
2023/07/13 20:48:26;;;;;;;10.18;2.72;;;;;;;;;;4964048;28;20121;-83
2023/07/13 20:50:54;;;;;;;8.50;2.50;;;;;;;;;;4951510;28;20047;-84
2023/07/13 20:53:20;;;;;;;10.95;2.88;;;;;;;;;;4949311;28;20047;-84
2023/07/13 20:55:45;;;;;;;10.10;2.70;;;;;;;;;;4949833;28;20047;-84